sensor_id;sensor_type;location;lat;lon;timestamp;P1;durP1;ratioP1;P2;durP2;ratioP2
44068;SDS011;29738;51.234;5.484;2023-01-30T00:01:45;27.73;;;13.27;;
44068;SDS011;29738;51.234;5.484;2023-01-30T00:04:11;27.92;;;13.98;;
44068;SDS011;29738;51.234;5.484;2023-01-30T00:06:40;27.55;;;13.77;;
44068;SDS011;29738;51.234;5.484;2023-01-30T00:09:06;26.77;;;11.73;;
44068;SDS011;29738;51.234;5.484;2023-01-30T00:11:34;28.08;;;13.55;;
44068;SDS011;29738;51.234;5.484;2023-01-30T00:14:00;38.83;;;16.85;;
44068;SDS011;29738;51.234;5.484;2023-01-30T00:16:26;20.92;;;12.18;;
44068;SDS011;29738;51.234;5.484;2023-01-30T00:18:51;30.45;;;15.10;;
44068;SDS011;29738;51.234;5.484;2023-01-30T00:21:17;24.70;;;11.80;;
44068;SDS011;29738;51.234;5.484;2023-01-30T00:23:43;29.60;;;14.20;;
44068;SDS011;29738;51.234;5.484;2023-01-30T00:26:09;28.45;;;12.65;;
44068;SDS011;29738;51.234;5.484;2023-01-30T00:28:36;29.77;;;15.05;;
44068;SDS011;29738;51.234;5.484;2023-01-30T00:31:02;45.42;;;16.55;;
44068;SDS011;29738;51.234;5.484;2023-01-30T00:33:29;24.13;;;12.82;;
44068;SDS011;29738;51.234;5.484;2023-01-30T00:35:55;25.00;;;12.15;;
44068;SDS011;29738;51.234;5.484;2023-01-30T00:38:22;26.83;;;12.48;;
44068;SDS011;29738;51.234;5.484;2023-01-30T00:40:48;29.00;;;14.77;;
44068;SDS011;29738;51.234;5.484;2023-01-30T00:43:16;22.23;;;12.73;;
44068;SDS011;29738;51.234;5.484;2023-01-30T00:46:02;29.48;;;12.82;;
44068;SDS011;29738;51.234;5.484;2023-01-30T00:49:09;29.30;;;14.40;;
44068;SDS011;29738;51.234;5.484;2023-01-30T00:51:35;31.60;;;15.88;;
44068;SDS011;29738;51.234;5.484;2023-01-30T00:54:01;32.33;;;16.80;;
44068;SDS011;29738;51.234;5.484;2023-01-30T00:56:26;49.25;;;23.58;;
44068;SDS011;29738;51.234;5.484;2023-01-30T00:58:52;27.98;;;12.88;;
44068;SDS011;29738;51.234;5.484;2023-01-30T01:01:18;32.70;;;13.90;;
44068;SDS011;29738;51.234;5.484;2023-01-30T01:03:44;31.77;;;15.73;;
44068;SDS011;29738;51.234;5.484;2023-01-30T01:06:09;26.75;;;12.73;;
44068;SDS011;29738;51.234;5.484;2023-01-30T01:08:35;30.50;;;13.38;;
44068;SDS011;29738;51.234;5.484;2023-01-30T01:11:01;30.17;;;16.00;;
44068;SDS011;29738;51.234;5.484;2023-01-30T01:13:27;26.42;;;11.55;;
44068;SDS011;29738;51.234;5.484;2023-01-30T01:15:53;30.48;;;14.43;;
44068;SDS011;29738;51.234;5.484;2023-01-30T01:18:18;29.20;;;13.40;;
44068;SDS011;29738;51.234;5.484;2023-01-30T01:20:44;30.33;;;15.32;;
44068;SDS011;29738;51.234;5.484;2023-01-30T01:23:10;28.27;;;13.52;;
44068;SDS011;29738;51.234;5.484;2023-01-30T01:25:36;27.50;;;14.38;;
44068;SDS011;29738;51.234;5.484;2023-01-30T01:28:02;27.73;;;13.77;;
44068;SDS011;29738;51.234;5.484;2023-01-30T01:30:28;25.50;;;13.38;;
44068;SDS011;29738;51.234;5.484;2023-01-30T01:32:55;25.60;;;13.80;;
44068;SDS011;29738;51.234;5.484;2023-01-30T01:35:21;31.58;;;14.80;;
44068;SDS011;29738;51.234;5.484;2023-01-30T01:37:47;32.35;;;17.00;;
44068;SDS011;29738;51.234;5.484;2023-01-30T01:40:18;25.13;;;11.70;;
44068;SDS011;29738;51.234;5.484;2023-01-30T01:43:20;30.45;;;13.98;;
44068;SDS011;29738;51.234;5.484;2023-01-30T01:45:48;26.25;;;13.50;;
44068;SDS011;29738;51.234;5.484;2023-01-30T01:48:28;24.13;;;11.57;;
44068;SDS011;29738;51.234;5.484;2023-01-30T01:51:01;33.10;;;13.93;;
44068;SDS011;29738;51.234;5.484;2023-01-30T01:53:33;29.60;;;14.43;;
44068;SDS011;29738;51.234;5.484;2023-01-30T01:56:03;35.60;;;15.05;;
44068;SDS011;29738;51.234;5.484;2023-01-30T01:58:33;32.67;;;15.25;;
44068;SDS011;29738;51.234;5.484;2023-01-30T02:01:04;25.58;;;14.23;;
44068;SDS011;29738;51.234;5.484;2023-01-30T02:03:32;28.92;;;13.80;;
44068;SDS011;29738;51.234;5.484;2023-01-30T02:06:01;31.65;;;13.18;;
44068;SDS011;29738;51.234;5.484;2023-01-30T02:13:45;32.75;;;16.70;;
44068;SDS011;29738;51.234;5.484;2023-01-30T02:16:12;31.25;;;12.07;;
44068;SDS011;29738;51.234;5.484;2023-01-30T02:18:39;24.83;;;12.88;;
44068;SDS011;29738;51.234;5.484;2023-01-30T02:21:16;23.55;;;10.57;;
44068;SDS011;29738;51.234;5.484;2023-01-30T02:34:58;34.67;;;14.85;;
44068;SDS011;29738;51.234;5.484;2023-01-30T02:45:59;30.27;;;14.07;;
44068;SDS011;29738;51.234;5.484;2023-01-30T02:51:18;33.40;;;15.45;;
44068;SDS011;29738;51.234;5.484;2023-01-30T02:53:47;29.25;;;13.93;;
44068;SDS011;29738;51.234;5.484;2023-01-30T02:56:14;36.50;;;14.05;;
44068;SDS011;29738;51.234;5.484;2023-01-30T02:58:41;37.65;;;16.67;;
44068;SDS011;29738;51.234;5.484;2023-01-30T03:07:14;38.17;;;18.63;;
44068;SDS011;29738;51.234;5.484;2023-01-30T03:15:51;28.05;;;14.57;;
44068;SDS011;29738;51.234;5.484;2023-01-30T03:18:20;34.03;;;16.13;;
44068;SDS011;29738;51.234;5.484;2023-01-30T03:20:46;27.95;;;13.18;;
44068;SDS011;29738;51.234;5.484;2023-01-30T03:23:13;38.45;;;19.13;;
44068;SDS011;29738;51.234;5.484;2023-01-30T03:25:39;43.05;;;18.90;;
44068;SDS011;29738;51.234;5.484;2023-01-30T03:28:07;29.08;;;11.80;;
44068;SDS011;29738;51.234;5.484;2023-01-30T03:30:34;39.33;;;18.20;;
44068;SDS011;29738;51.234;5.484;2023-01-30T03:33:00;43.00;;;16.48;;
44068;SDS011;29738;51.234;5.484;2023-01-30T03:35:26;44.58;;;18.48;;
44068;SDS011;29738;51.234;5.484;2023-01-30T03:37:53;36.83;;;17.30;;
44068;SDS011;29738;51.234;5.484;2023-01-30T03:40:19;45.55;;;19.17;;
44068;SDS011;29738;51.234;5.484;2023-01-30T03:42:45;33.00;;;15.27;;
44068;SDS011;29738;51.234;5.484;2023-01-30T03:45:10;33.22;;;13.63;;
44068;SDS011;29738;51.234;5.484;2023-01-30T03:47:36;31.75;;;13.07;;
44068;SDS011;29738;51.234;5.484;2023-01-30T03:50:02;34.75;;;13.30;;
44068;SDS011;29738;51.234;5.484;2023-01-30T03:52:28;29.77;;;13.73;;
44068;SDS011;29738;51.234;5.484;2023-01-30T03:54:54;39.90;;;14.90;;
44068;SDS011;29738;51.234;5.484;2023-01-30T03:57:20;34.63;;;15.38;;
44068;SDS011;29738;51.234;5.484;2023-01-30T03:59:45;39.15;;;15.35;;
44068;SDS011;29738;51.234;5.484;2023-01-30T04:02:11;35.90;;;14.27;;
44068;SDS011;29738;51.234;5.484;2023-01-30T04:04:38;37.97;;;14.23;;
44068;SDS011;29738;51.234;5.484;2023-01-30T04:07:04;35.25;;;14.32;;
44068;SDS011;29738;51.234;5.484;2023-01-30T04:09:31;40.40;;;16.55;;
44068;SDS011;29738;51.234;5.484;2023-01-30T04:11:57;51.03;;;18.05;;
44068;SDS011;29738;51.234;5.484;2023-01-30T04:14:23;45.80;;;15.95;;
44068;SDS011;29738;51.234;5.484;2023-01-30T04:16:49;40.70;;;18.35;;
44068;SDS011;29738;51.234;5.484;2023-01-30T04:19:14;40.28;;;16.77;;
44068;SDS011;29738;51.234;5.484;2023-01-30T04:21:40;43.10;;;18.88;;
44068;SDS011;29738;51.234;5.484;2023-01-30T04:24:06;38.40;;;16.88;;
44068;SDS011;29738;51.234;5.484;2023-01-30T04:26:32;37.50;;;14.18;;
44068;SDS011;29738;51.234;5.484;2023-01-30T04:28:58;42.50;;;17.63;;
44068;SDS011;29738;51.234;5.484;2023-01-30T04:31:23;30.70;;;13.73;;
44068;SDS011;29738;51.234;5.484;2023-01-30T04:33:49;48.28;;;14.07;;
44068;SDS011;29738;51.234;5.484;2023-01-30T04:36:15;34.40;;;13.88;;
44068;SDS011;29738;51.234;5.484;2023-01-30T04:38:41;31.92;;;13.63;;
44068;SDS011;29738;51.234;5.484;2023-01-30T04:41:06;31.85;;;14.73;;
44068;SDS011;29738;51.234;5.484;2023-01-30T04:43:32;32.65;;;12.75;;
44068;SDS011;29738;51.234;5.484;2023-01-30T04:45:58;36.35;;;14.75;;
44068;SDS011;29738;51.234;5.484;2023-01-30T04:48:24;33.20;;;12.73;;
44068;SDS011;29738;51.234;5.484;2023-01-30T04:50:51;40.80;;;16.15;;
44068;SDS011;29738;51.234;5.484;2023-01-30T04:53:19;38.58;;;16.25;;
44068;SDS011;29738;51.234;5.484;2023-01-30T04:55:45;32.28;;;10.50;;
44068;SDS011;29738;51.234;5.484;2023-01-30T04:58:11;35.75;;;14.32;;
44068;SDS011;29738;51.234;5.484;2023-01-30T05:00:38;36.05;;;13.07;;
44068;SDS011;29738;51.234;5.484;2023-01-30T05:03:04;38.67;;;14.60;;
44068;SDS011;29738;51.234;5.484;2023-01-30T05:05:30;35.72;;;13.10;;
44068;SDS011;29738;51.234;5.484;2023-01-30T05:07:57;34.58;;;14.63;;
44068;SDS011;29738;51.234;5.484;2023-01-30T05:10:23;38.28;;;16.10;;
44068;SDS011;29738;51.234;5.484;2023-01-30T05:12:48;29.70;;;13.13;;
44068;SDS011;29738;51.234;5.484;2023-01-30T05:15:14;45.45;;;18.10;;
44068;SDS011;29738;51.234;5.484;2023-01-30T05:17:40;50.63;;;18.75;;
44068;SDS011;29738;51.234;5.484;2023-01-30T05:20:07;47.65;;;17.83;;
44068;SDS011;29738;51.234;5.484;2023-01-30T05:22:34;52.70;;;17.67;;
44068;SDS011;29738;51.234;5.484;2023-01-30T05:25:00;46.38;;;17.02;;
44068;SDS011;29738;51.234;5.484;2023-01-30T05:27:26;52.65;;;18.58;;
44068;SDS011;29738;51.234;5.484;2023-01-30T05:29:52;50.60;;;17.92;;
44068;SDS011;29738;51.234;5.484;2023-01-30T05:32:18;48.08;;;17.67;;
44068;SDS011;29738;51.234;5.484;2023-01-30T05:34:44;63.63;;;25.60;;
44068;SDS011;29738;51.234;5.484;2023-01-30T05:37:12;58.75;;;22.08;;
44068;SDS011;29738;51.234;5.484;2023-01-30T05:39:37;57.72;;;20.98;;
44068;SDS011;29738;51.234;5.484;2023-01-30T05:42:03;56.35;;;21.98;;
44068;SDS011;29738;51.234;5.484;2023-01-30T05:44:29;53.42;;;19.85;;
44068;SDS011;29738;51.234;5.484;2023-01-30T05:46:55;61.95;;;22.70;;
44068;SDS011;29738;51.234;5.484;2023-01-30T05:49:21;68.05;;;26.38;;
44068;SDS011;29738;51.234;5.484;2023-01-30T05:51:47;54.00;;;20.95;;
44068;SDS011;29738;51.234;5.484;2023-01-30T05:54:13;66.38;;;26.90;;
44068;SDS011;29738;51.234;5.484;2023-01-30T05:56:39;65.55;;;22.80;;
44068;SDS011;29738;51.234;5.484;2023-01-30T05:59:05;72.35;;;25.58;;
44068;SDS011;29738;51.234;5.484;2023-01-30T06:01:30;66.88;;;27.10;;
44068;SDS011;29738;51.234;5.484;2023-01-30T06:03:57;56.83;;;21.67;;
44068;SDS011;29738;51.234;5.484;2023-01-30T06:06:23;77.95;;;24.80;;
44068;SDS011;29738;51.234;5.484;2023-01-30T06:08:55;69.40;;;21.42;;
44068;SDS011;29738;51.234;5.484;2023-01-30T06:11:22;72.85;;;22.10;;
44068;SDS011;29738;51.234;5.484;2023-01-30T06:13:48;54.92;;;23.80;;
44068;SDS011;29738;51.234;5.484;2023-01-30T06:16:15;78.38;;;29.10;;
44068;SDS011;29738;51.234;5.484;2023-01-30T06:18:42;64.15;;;18.73;;
44068;SDS011;29738;51.234;5.484;2023-01-30T06:21:11;39.58;;;16.38;;
44068;SDS011;29738;51.234;5.484;2023-01-30T06:23:38;65.28;;;22.63;;
44068;SDS011;29738;51.234;5.484;2023-01-30T06:26:04;73.45;;;23.23;;
44068;SDS011;29738;51.234;5.484;2023-01-30T06:28:30;56.95;;;21.33;;
44068;SDS011;29738;51.234;5.484;2023-01-30T06:30:55;72.50;;;22.27;;
44068;SDS011;29738;51.234;5.484;2023-01-30T06:33:21;62.28;;;20.15;;
44068;SDS011;29738;51.234;5.484;2023-01-30T06:35:48;245.02;;;71.60;;
44068;SDS011;29738;51.234;5.484;2023-01-30T06:38:15;124.32;;;46.50;;
44068;SDS011;29738;51.234;5.484;2023-01-30T06:40:46;82.88;;;25.50;;
44068;SDS011;29738;51.234;5.484;2023-01-30T06:43:13;52.30;;;18.23;;
44068;SDS011;29738;51.234;5.484;2023-01-30T06:45:39;50.00;;;17.50;;
44068;SDS011;29738;51.234;5.484;2023-01-30T06:48:05;55.53;;;21.05;;
44068;SDS011;29738;51.234;5.484;2023-01-30T06:50:32;59.75;;;21.38;;
44068;SDS011;29738;51.234;5.484;2023-01-30T06:53:00;65.97;;;21.48;;
44068;SDS011;29738;51.234;5.484;2023-01-30T06:55:27;70.13;;;21.88;;
44068;SDS011;29738;51.234;5.484;2023-01-30T06:58:00;61.45;;;20.83;;
44068;SDS011;29738;51.234;5.484;2023-01-30T07:00:32;44.75;;;14.20;;
44068;SDS011;29738;51.234;5.484;2023-01-30T07:03:00;59.35;;;18.90;;
44068;SDS011;29738;51.234;5.484;2023-01-30T07:05:26;46.17;;;13.45;;
44068;SDS011;29738;51.234;5.484;2023-01-30T07:07:53;48.70;;;17.10;;
44068;SDS011;29738;51.234;5.484;2023-01-30T07:10:18;45.10;;;12.55;;
44068;SDS011;29738;51.234;5.484;2023-01-30T07:12:45;39.58;;;11.52;;
44068;SDS011;29738;51.234;5.484;2023-01-30T07:15:11;33.72;;;9.88;;
44068;SDS011;29738;51.234;5.484;2023-01-30T07:17:38;24.50;;;8.88;;
44068;SDS011;29738;51.234;5.484;2023-01-30T07:20:06;35.88;;;9.73;;
44068;SDS011;29738;51.234;5.484;2023-01-30T07:22:33;28.15;;;8.65;;
44068;SDS011;29738;51.234;5.484;2023-01-30T07:24:59;27.52;;;8.60;;
44068;SDS011;29738;51.234;5.484;2023-01-30T07:27:24;30.95;;;7.90;;
44068;SDS011;29738;51.234;5.484;2023-01-30T07:29:50;22.45;;;6.65;;
44068;SDS011;29738;51.234;5.484;2023-01-30T07:32:17;19.63;;;5.25;;
44068;SDS011;29738;51.234;5.484;2023-01-30T07:34:44;18.55;;;5.22;;
44068;SDS011;29738;51.234;5.484;2023-01-30T07:37:10;22.98;;;6.13;;
44068;SDS011;29738;51.234;5.484;2023-01-30T07:39:36;26.52;;;6.60;;
44068;SDS011;29738;51.234;5.484;2023-01-30T07:42:02;13.38;;;4.30;;
44068;SDS011;29738;51.234;5.484;2023-01-30T07:44:29;24.58;;;7.22;;
44068;SDS011;29738;51.234;5.484;2023-01-30T07:46:55;15.93;;;5.35;;
44068;SDS011;29738;51.234;5.484;2023-01-30T07:49:21;25.58;;;5.80;;
44068;SDS011;29738;51.234;5.484;2023-01-30T07:51:47;13.30;;;4.75;;
44068;SDS011;29738;51.234;5.484;2023-01-30T07:54:12;11.80;;;3.63;;
44068;SDS011;29738;51.234;5.484;2023-01-30T07:56:38;25.27;;;4.45;;
44068;SDS011;29738;51.234;5.484;2023-01-30T07:59:04;20.10;;;3.53;;
44068;SDS011;29738;51.234;5.484;2023-01-30T08:01:30;18.92;;;3.83;;
44068;SDS011;29738;51.234;5.484;2023-01-30T08:03:57;19.58;;;5.53;;
44068;SDS011;29738;51.234;5.484;2023-01-30T08:06:23;19.48;;;5.07;;
44068;SDS011;29738;51.234;5.484;2023-01-30T08:08:49;17.67;;;3.92;;
44068;SDS011;29738;51.234;5.484;2023-01-30T08:11:15;16.50;;;4.40;;
44068;SDS011;29738;51.234;5.484;2023-01-30T08:13:42;12.25;;;3.03;;
44068;SDS011;29738;51.234;5.484;2023-01-30T08:16:08;16.40;;;4.45;;
44068;SDS011;29738;51.234;5.484;2023-01-30T08:18:34;17.38;;;3.33;;
44068;SDS011;29738;51.234;5.484;2023-01-30T08:21:01;15.27;;;3.92;;
44068;SDS011;29738;51.234;5.484;2023-01-30T08:23:28;12.75;;;4.15;;
44068;SDS011;29738;51.234;5.484;2023-01-30T08:25:55;15.82;;;3.88;;
44068;SDS011;29738;51.234;5.484;2023-01-30T08:28:21;15.55;;;4.00;;
44068;SDS011;29738;51.234;5.484;2023-01-30T08:30:48;11.77;;;2.72;;
44068;SDS011;29738;51.234;5.484;2023-01-30T08:33:14;15.90;;;3.10;;
44068;SDS011;29738;51.234;5.484;2023-01-30T08:35:40;11.30;;;3.25;;
44068;SDS011;29738;51.234;5.484;2023-01-30T08:38:06;38.85;;;4.10;;
44068;SDS011;29738;51.234;5.484;2023-01-30T08:40:33;14.43;;;4.10;;
44068;SDS011;29738;51.234;5.484;2023-01-30T08:42:59;7.38;;;3.03;;
44068;SDS011;29738;51.234;5.484;2023-01-30T08:45:25;7.25;;;2.22;;
44068;SDS011;29738;51.234;5.484;2023-01-30T08:47:52;8.57;;;1.85;;
44068;SDS011;29738;51.234;5.484;2023-01-30T08:50:17;10.50;;;2.63;;
44068;SDS011;29738;51.234;5.484;2023-01-30T08:52:43;13.38;;;3.88;;
44068;SDS011;29738;51.234;5.484;2023-01-30T08:55:09;19.80;;;4.25;;
44068;SDS011;29738;51.234;5.484;2023-01-30T08:57:35;21.45;;;3.60;;
44068;SDS011;29738;51.234;5.484;2023-01-30T09:00:02;8.52;;;3.25;;
44068;SDS011;29738;51.234;5.484;2023-01-30T09:02:28;12.95;;;3.63;;
44068;SDS011;29738;51.234;5.484;2023-01-30T09:04:54;14.73;;;2.92;;
44068;SDS011;29738;51.234;5.484;2023-01-30T09:07:20;12.60;;;2.83;;
44068;SDS011;29738;51.234;5.484;2023-01-30T09:09:46;21.38;;;3.45;;
44068;SDS011;29738;51.234;5.484;2023-01-30T09:12:12;17.27;;;3.47;;
44068;SDS011;29738;51.234;5.484;2023-01-30T09:14:38;18.17;;;4.15;;
44068;SDS011;29738;51.234;5.484;2023-01-30T09:17:04;18.67;;;4.57;;
44068;SDS011;29738;51.234;5.484;2023-01-30T09:19:30;14.63;;;3.65;;
44068;SDS011;29738;51.234;5.484;2023-01-30T09:21:56;18.45;;;3.20;;
44068;SDS011;29738;51.234;5.484;2023-01-30T09:24:22;13.20;;;3.50;;
44068;SDS011;29738;51.234;5.484;2023-01-30T09:26:52;9.45;;;2.55;;
44068;SDS011;29738;51.234;5.484;2023-01-30T09:29:21;10.55;;;2.65;;
44068;SDS011;29738;51.234;5.484;2023-01-30T09:31:47;19.05;;;4.47;;
44068;SDS011;29738;51.234;5.484;2023-01-30T09:34:13;19.58;;;3.65;;
44068;SDS011;29738;51.234;5.484;2023-01-30T09:36:40;24.63;;;3.88;;
44068;SDS011;29738;51.234;5.484;2023-01-30T09:39:07;11.73;;;1.95;;
44068;SDS011;29738;51.234;5.484;2023-01-30T09:47:32;12.43;;;3.10;;
44068;SDS011;29738;51.234;5.484;2023-01-30T09:56:09;16.35;;;3.95;;
44068;SDS011;29738;51.234;5.484;2023-01-30T09:58:47;24.38;;;2.95;;
44068;SDS011;29738;51.234;5.484;2023-01-30T10:01:22;12.02;;;3.15;;
44068;SDS011;29738;51.234;5.484;2023-01-30T10:04:04;14.93;;;4.28;;
44068;SDS011;29738;51.234;5.484;2023-01-30T10:06:53;12.52;;;2.50;;
44068;SDS011;29738;51.234;5.484;2023-01-30T10:09:30;16.33;;;2.67;;
44068;SDS011;29738;51.234;5.484;2023-01-30T10:25:48;14.95;;;2.85;;
44068;SDS011;29738;51.234;5.484;2023-01-30T10:28:24;11.93;;;2.42;;
44068;SDS011;29738;51.234;5.484;2023-01-30T10:30:51;11.63;;;2.28;;
44068;SDS011;29738;51.234;5.484;2023-01-30T10:33:25;13.80;;;3.17;;
44068;SDS011;29738;51.234;5.484;2023-01-30T10:36:01;8.77;;;1.77;;
44068;SDS011;29738;51.234;5.484;2023-01-30T10:38:36;11.77;;;2.58;;
44068;SDS011;29738;51.234;5.484;2023-01-30T10:41:23;9.15;;;2.22;;
44068;SDS011;29738;51.234;5.484;2023-01-30T10:43:56;10.43;;;1.77;;
44068;SDS011;29738;51.234;5.484;2023-01-30T10:52:02;14.82;;;2.50;;
44068;SDS011;29738;51.234;5.484;2023-01-30T10:54:47;9.85;;;2.03;;
44068;SDS011;29738;51.234;5.484;2023-01-30T10:57:34;12.40;;;3.03;;
44068;SDS011;29738;51.234;5.484;2023-01-30T11:02:43;18.50;;;2.42;;
44068;SDS011;29738;51.234;5.484;2023-01-30T11:05:55;11.93;;;2.33;;
44068;SDS011;29738;51.234;5.484;2023-01-30T11:08:29;9.07;;;2.07;;
44068;SDS011;29738;51.234;5.484;2023-01-30T11:10:57;8.95;;;2.42;;
44068;SDS011;29738;51.234;5.484;2023-01-30T11:13:28;18.13;;;5.65;;
44068;SDS011;29738;51.234;5.484;2023-01-30T11:15:58;12.05;;;2.53;;
44068;SDS011;29738;51.234;5.484;2023-01-30T11:18:30;11.68;;;2.15;;
44068;SDS011;29738;51.234;5.484;2023-01-30T11:21:03;9.70;;;2.47;;
44068;SDS011;29738;51.234;5.484;2023-01-30T11:23:39;16.73;;;2.42;;
44068;SDS011;29738;51.234;5.484;2023-01-30T11:26:10;6.47;;;1.88;;
44068;SDS011;29738;51.234;5.484;2023-01-30T11:28:44;12.80;;;2.00;;
44068;SDS011;29738;51.234;5.484;2023-01-30T11:31:20;10.13;;;1.77;;
44068;SDS011;29738;51.234;5.484;2023-01-30T11:34:10;9.80;;;1.77;;
44068;SDS011;29738;51.234;5.484;2023-01-30T11:36:39;9.07;;;2.10;;
44068;SDS011;29738;51.234;5.484;2023-01-30T11:41:41;10.45;;;2.05;;
44068;SDS011;29738;51.234;5.484;2023-01-30T11:44:08;14.15;;;2.33;;
44068;SDS011;29738;51.234;5.484;2023-01-30T11:46:35;9.23;;;2.13;;
44068;SDS011;29738;51.234;5.484;2023-01-30T11:49:13;5.65;;;2.10;;
44068;SDS011;29738;51.234;5.484;2023-01-30T11:51:41;8.35;;;1.60;;
44068;SDS011;29738;51.234;5.484;2023-01-30T11:54:16;7.65;;;1.98;;
44068;SDS011;29738;51.234;5.484;2023-01-30T11:56:45;11.52;;;3.10;;
44068;SDS011;29738;51.234;5.484;2023-01-30T11:59:23;7.85;;;1.80;;
44068;SDS011;29738;51.234;5.484;2023-01-30T12:04:44;8.85;;;1.73;;
44068;SDS011;29738;51.234;5.484;2023-01-30T12:07:21;8.95;;;2.20;;
44068;SDS011;29738;51.234;5.484;2023-01-30T12:09:50;11.95;;;2.90;;
44068;SDS011;29738;51.234;5.484;2023-01-30T12:12:34;8.45;;;2.97;;
44068;SDS011;29738;51.234;5.484;2023-01-30T12:18:09;9.30;;;2.03;;
44068;SDS011;29738;51.234;5.484;2023-01-30T12:20:55;9.40;;;2.10;;
44068;SDS011;29738;51.234;5.484;2023-01-30T12:28:51;9.20;;;1.95;;
44068;SDS011;29738;51.234;5.484;2023-01-30T12:31:31;10.20;;;2.33;;
44068;SDS011;29738;51.234;5.484;2023-01-30T12:34:01;6.00;;;2.00;;
44068;SDS011;29738;51.234;5.484;2023-01-30T12:47:49;13.70;;;3.20;;
44068;SDS011;29738;51.234;5.484;2023-01-30T13:01:25;10.35;;;2.30;;
44068;SDS011;29738;51.234;5.484;2023-01-30T13:07:16;9.82;;;2.75;;
44068;SDS011;29738;51.234;5.484;2023-01-30T13:12:51;6.85;;;2.22;;
44068;SDS011;29738;51.234;5.484;2023-01-30T13:20:51;8.60;;;2.60;;
44068;SDS011;29738;51.234;5.484;2023-01-30T13:23:26;9.68;;;2.17;;
44068;SDS011;29738;51.234;5.484;2023-01-30T13:26:23;19.30;;;2.92;;
44068;SDS011;29738;51.234;5.484;2023-01-30T13:28:56;13.50;;;3.63;;
44068;SDS011;29738;51.234;5.484;2023-01-30T13:31:28;14.70;;;2.47;;
44068;SDS011;29738;51.234;5.484;2023-01-30T13:34:09;8.65;;;1.83;;
44068;SDS011;29738;51.234;5.484;2023-01-30T13:36:43;9.35;;;1.75;;
44068;SDS011;29738;51.234;5.484;2023-01-30T13:39:22;11.73;;;2.58;;
44068;SDS011;29738;51.234;5.484;2023-01-30T13:42:17;13.23;;;4.05;;
44068;SDS011;29738;51.234;5.484;2023-01-30T13:45:04;9.25;;;2.22;;
44068;SDS011;29738;51.234;5.484;2023-01-30T13:56:09;13.32;;;2.47;;
44068;SDS011;29738;51.234;5.484;2023-01-30T14:01:12;11.10;;;2.45;;
44068;SDS011;29738;51.234;5.484;2023-01-30T14:03:41;13.25;;;2.88;;
44068;SDS011;29738;51.234;5.484;2023-01-30T14:17:09;15.40;;;3.05;;
44068;SDS011;29738;51.234;5.484;2023-01-30T14:19:38;9.70;;;1.92;;
44068;SDS011;29738;51.234;5.484;2023-01-30T14:27:53;11.07;;;2.80;;
44068;SDS011;29738;51.234;5.484;2023-01-30T14:35:47;10.88;;;3.00;;
44068;SDS011;29738;51.234;5.484;2023-01-30T14:38:33;7.65;;;1.98;;
44068;SDS011;29738;51.234;5.484;2023-01-30T14:59:20;9.48;;;2.50;;
44068;SDS011;29738;51.234;5.484;2023-01-30T15:04:20;9.02;;;1.95;;
44068;SDS011;29738;51.234;5.484;2023-01-30T15:06:46;9.93;;;2.28;;
44068;SDS011;29738;51.234;5.484;2023-01-30T15:09:17;7.80;;;1.60;;
44068;SDS011;29738;51.234;5.484;2023-01-30T15:11:55;10.48;;;1.98;;
44068;SDS011;29738;51.234;5.484;2023-01-30T15:14:31;13.70;;;2.58;;
44068;SDS011;29738;51.234;5.484;2023-01-30T15:20:11;8.25;;;1.95;;
44068;SDS011;29738;51.234;5.484;2023-01-30T15:23:08;13.18;;;2.00;;
44068;SDS011;29738;51.234;5.484;2023-01-30T15:28:44;8.77;;;2.13;;
44068;SDS011;29738;51.234;5.484;2023-01-30T15:31:28;13.10;;;3.10;;
44068;SDS011;29738;51.234;5.484;2023-01-30T15:33:54;15.18;;;3.45;;
44068;SDS011;29738;51.234;5.484;2023-01-30T15:36:24;7.93;;;1.85;;
44068;SDS011;29738;51.234;5.484;2023-01-30T15:39:03;9.95;;;2.20;;
44068;SDS011;29738;51.234;5.484;2023-01-30T15:41:39;8.90;;;2.03;;
44068;SDS011;29738;51.234;5.484;2023-01-30T15:44:17;13.88;;;3.30;;
44068;SDS011;29738;51.234;5.484;2023-01-30T15:52:04;7.82;;;2.40;;
44068;SDS011;29738;51.234;5.484;2023-01-30T15:54:36;10.70;;;2.22;;
44068;SDS011;29738;51.234;5.484;2023-01-30T15:57:01;4.38;;;1.50;;
44068;SDS011;29738;51.234;5.484;2023-01-30T16:02:06;10.27;;;2.13;;
44068;SDS011;29738;51.234;5.484;2023-01-30T16:04:42;8.98;;;2.00;;
44068;SDS011;29738;51.234;5.484;2023-01-30T16:07:24;13.15;;;1.90;;
44068;SDS011;29738;51.234;5.484;2023-01-30T16:12:27;10.55;;;1.95;;
44068;SDS011;29738;51.234;5.484;2023-01-30T16:14:54;12.57;;;2.55;;
44068;SDS011;29738;51.234;5.484;2023-01-30T16:17:24;10.93;;;2.63;;
44068;SDS011;29738;51.234;5.484;2023-01-30T16:19:53;14.73;;;2.70;;
44068;SDS011;29738;51.234;5.484;2023-01-30T16:22:19;6.57;;;2.03;;
44068;SDS011;29738;51.234;5.484;2023-01-30T16:24:47;10.73;;;2.10;;
44068;SDS011;29738;51.234;5.484;2023-01-30T16:29:51;8.40;;;2.42;;
44068;SDS011;29738;51.234;5.484;2023-01-30T16:32:23;6.00;;;1.70;;
44068;SDS011;29738;51.234;5.484;2023-01-30T16:37:50;10.32;;;2.10;;
44068;SDS011;29738;51.234;5.484;2023-01-30T16:40:27;10.15;;;2.00;;
44068;SDS011;29738;51.234;5.484;2023-01-30T16:50:46;18.73;;;3.28;;
44068;SDS011;29738;51.234;5.484;2023-01-30T16:53:17;6.88;;;1.80;;
44068;SDS011;29738;51.234;5.484;2023-01-30T16:56:28;12.63;;;2.88;;
44068;SDS011;29738;51.234;5.484;2023-01-30T16:58:41;16.63;;;2.92;;
44068;SDS011;29738;51.234;5.484;2023-01-30T17:01:10;12.85;;;1.88;;
44068;SDS011;29738;51.234;5.484;2023-01-30T17:03:37;10.30;;;2.65;;
44068;SDS011;29738;51.234;5.484;2023-01-30T17:06:06;14.40;;;1.85;;
44068;SDS011;29738;51.234;5.484;2023-01-30T17:08:54;14.52;;;2.45;;
44068;SDS011;29738;51.234;5.484;2023-01-30T17:17:06;10.88;;;2.20;;
44068;SDS011;29738;51.234;5.484;2023-01-30T17:19:36;13.40;;;2.47;;
44068;SDS011;29738;51.234;5.484;2023-01-30T17:22:02;11.02;;;2.05;;
44068;SDS011;29738;51.234;5.484;2023-01-30T17:24:30;14.07;;;2.85;;
44068;SDS011;29738;51.234;5.484;2023-01-30T17:27:00;14.00;;;2.92;;
44068;SDS011;29738;51.234;5.484;2023-01-30T17:29:28;8.13;;;1.90;;
44068;SDS011;29738;51.234;5.484;2023-01-30T17:31:56;13.60;;;2.83;;
44068;SDS011;29738;51.234;5.484;2023-01-30T17:34:22;10.15;;;2.60;;
44068;SDS011;29738;51.234;5.484;2023-01-30T17:36:50;13.77;;;2.55;;
44068;SDS011;29738;51.234;5.484;2023-01-30T17:39:18;11.43;;;2.45;;
44068;SDS011;29738;51.234;5.484;2023-01-30T17:41:45;9.75;;;2.97;;
44068;SDS011;29738;51.234;5.484;2023-01-30T17:44:13;10.18;;;2.28;;
44068;SDS011;29738;51.234;5.484;2023-01-30T17:46:46;16.63;;;2.70;;
44068;SDS011;29738;51.234;5.484;2023-01-30T17:49:14;13.07;;;2.63;;
44068;SDS011;29738;51.234;5.484;2023-01-30T17:51:41;14.27;;;2.67;;
44068;SDS011;29738;51.234;5.484;2023-01-30T17:54:08;9.10;;;2.35;;
44068;SDS011;29738;51.234;5.484;2023-01-30T17:56:37;12.52;;;2.78;;
44068;SDS011;29738;51.234;5.484;2023-01-30T17:59:10;12.40;;;2.55;;
44068;SDS011;29738;51.234;5.484;2023-01-30T18:01:39;9.95;;;2.28;;
44068;SDS011;29738;51.234;5.484;2023-01-30T18:04:06;21.23;;;2.72;;
44068;SDS011;29738;51.234;5.484;2023-01-30T18:06:31;13.48;;;3.25;;
44068;SDS011;29738;51.234;5.484;2023-01-30T18:08:58;10.23;;;3.13;;
44068;SDS011;29738;51.234;5.484;2023-01-30T18:11:24;10.77;;;2.25;;
44068;SDS011;29738;51.234;5.484;2023-01-30T18:13:50;10.10;;;3.85;;
44068;SDS011;29738;51.234;5.484;2023-01-30T18:16:18;18.30;;;5.13;;